createdAt,value
2023-02-11T09:02:46.660Z,6.68
2023-02-11T09:05:13.660Z,5.78
2023-02-11T09:07:40.709Z,5.32
2023-02-11T09:10:07.836Z,5.55
2023-02-11T09:12:34.937Z,5.67
2023-02-11T09:15:02.031Z,5.60
2023-02-11T09:17:29.066Z,4.95
2023-02-11T09:19:56.038Z,3.58
2023-02-11T09:22:23.033Z,3.47
2023-02-11T09:24:50.038Z,2.95
2023-02-11T09:27:17.001Z,2.72
2023-02-11T09:29:44.030Z,2.40
2023-02-11T09:32:11.160Z,2.00
2023-02-11T09:34:38.278Z,1.98
2023-02-11T09:37:05.297Z,1.60
2023-02-11T09:39:32.261Z,1.70
2023-02-11T09:41:59.215Z,1.50
2023-02-11T09:44:27.941Z,1.40
2023-02-11T09:47:21.410Z,1.30
2023-02-11T09:49:50.636Z,1.10
2023-02-11T09:52:32.748Z,1.20
2023-02-11T09:55:04.324Z,0.90
2023-02-11T09:57:35.736Z,1.37
2023-02-11T10:00:04.409Z,1.42
2023-02-11T10:02:44.971Z,1.30
2023-02-11T10:05:31.490Z,1.50
2023-02-11T10:08:01.530Z,1.35
2023-02-11T10:10:40.880Z,1.40
2023-02-11T10:13:13.686Z,1.58
2023-02-11T10:15:40.714Z,1.70
2023-02-11T10:18:07.797Z,1.70
2023-02-11T10:20:39.455Z,1.80
2023-02-11T10:23:27.303Z,1.98
2023-02-11T10:25:56.199Z,1.77
2023-02-11T10:28:25.220Z,1.42
2023-02-11T10:30:58.705Z,1.70
2023-02-11T10:33:32.515Z,1.20
2023-02-11T10:35:59.985Z,1.15
2023-02-11T10:38:27.979Z,1.20
2023-02-11T10:40:54.981Z,0.80
2023-02-11T10:43:24.845Z,1.00
2023-02-11T10:45:54.694Z,1.40
2023-02-11T10:48:40.714Z,3.97
2023-02-11T10:51:19.017Z,1.90
2023-02-11T10:53:46.879Z,1.50
2023-02-11T10:56:24.978Z,1.42
2023-02-11T10:59:02.311Z,1.15
2023-02-11T11:01:50.664Z,1.40
2023-02-11T11:04:36.410Z,1.77
2023-02-11T11:07:14.984Z,1.45
2023-02-11T11:09:45.104Z,1.70
2023-02-11T11:12:32.894Z,2.35
2023-02-11T11:15:01.717Z,9.40
2023-02-11T11:17:29.196Z,15.50
2023-02-11T11:20:14.749Z,17.48
2023-02-11T11:22:42.444Z,14.02
2023-02-11T11:25:26.789Z,10.32
2023-02-11T11:27:55.342Z,9.65
2023-02-11T11:30:23.904Z,7.82
2023-02-11T11:32:50.939Z,7.25
2023-02-11T11:35:22.443Z,8.50
2023-02-11T11:37:53.784Z,7.95
2023-02-11T11:40:25.697Z,7.85
2023-02-11T11:43:04.914Z,6.82
